createdAt,value
2022-09-06T00:01:16.063Z,65.53
2022-09-06T00:03:42.961Z,65.39
2022-09-06T00:06:19.468Z,65.56
2022-09-06T00:08:47.808Z,65.41
2022-09-06T00:11:15.398Z,64.97
2022-09-06T00:13:42.644Z,65.24
2022-09-06T00:16:12.991Z,64.95
2022-09-06T00:18:39.729Z,65.36
2022-09-06T00:21:16.066Z,64.92
2022-09-06T00:23:42.641Z,65.31
2022-09-06T00:26:09.187Z,65.70
2022-09-06T00:28:35.747Z,66.23
2022-09-06T00:31:20.425Z,66.27
2022-09-06T00:33:47.008Z,67.12
2022-09-06T00:36:14.228Z,67.22
2022-09-06T00:38:41.629Z,66.85
2022-09-06T00:41:10.553Z,66.81
2022-09-06T00:43:37.538Z,66.87
2022-09-06T00:46:06.001Z,65.01
2022-09-06T00:48:33.238Z,66.26
2022-09-06T00:51:02.875Z,67.33
2022-09-06T00:53:31.002Z,66.80
2022-09-06T00:55:57.877Z,67.12
2022-09-06T00:58:25.398Z,67.31
2022-09-06T01:00:51.964Z,67.63
2022-09-06T01:03:19.520Z,67.48
2022-09-06T01:06:10.094Z,67.92
2022-09-06T01:08:48.831Z,69.08
2022-09-06T01:11:46.408Z,70.13
2022-09-06T01:14:51.556Z,70.14
2022-09-06T01:17:41.926Z,72.39
2022-09-06T01:20:34.330Z,75.04
2022-09-06T01:23:28.823Z,76.60
2022-09-06T01:26:20.649Z,79.53
2022-09-06T01:28:48.310Z,81.37
2022-09-06T01:31:48.297Z,83.93
2022-09-06T01:34:24.182Z,84.74
2022-09-06T01:37:09.474Z,84.34
2022-09-06T01:39:37.898Z,82.83
2022-09-06T01:42:12.116Z,82.04
2022-09-06T01:44:43.758Z,81.14
2022-09-06T01:47:35.495Z,80.47
2022-09-06T01:50:16.869Z,80.00
2022-09-06T01:53:04.034Z,78.77
2022-09-06T01:55:39.204Z,79.04
2022-09-06T01:58:05.614Z,78.89
2022-09-06T02:00:40.610Z,78.80
2022-09-06T02:03:31.577Z,78.53
2022-09-06T02:06:09.391Z,79.10
2022-09-06T02:08:41.754Z,79.62
2022-09-06T02:11:09.370Z,79.24
2022-09-06T02:13:49.916Z,79.96
2022-09-06T02:16:21.385Z,81.72
2022-09-06T02:18:53.972Z,80.92
2022-09-06T02:21:30.342Z,81.12
2022-09-06T02:24:00.537Z,80.94
2022-09-06T02:26:30.503Z,80.28
2022-09-06T02:28:57.601Z,80.92
2022-09-06T02:31:30.354Z,80.37
2022-09-06T02:33:57.557Z,80.80
2022-09-06T02:36:24.544Z,80.28
2022-09-06T02:38:51.654Z,80.24
2022-09-06T02:41:22.613Z,79.95
2022-09-06T02:43:49.213Z,79.44
2022-09-06T02:46:16.601Z,80.09
2022-09-06T02:48:43.143Z,79.91
2022-09-06T02:51:10.061Z,79.80
2022-09-06T02:53:36.721Z,79.59
2022-09-06T02:56:03.692Z,79.63
2022-09-06T02:58:30.251Z,78.46
2022-09-06T03:00:56.814Z,79.42
2022-09-06T03:03:23.734Z,79.53
2022-09-06T03:05:53.288Z,78.95
2022-09-06T03:08:21.474Z,79.10
2022-09-06T03:10:56.183Z,78.62
2022-09-06T03:13:23.877Z,79.10
2022-09-06T03:15:52.536Z,78.20
2022-09-06T03:18:19.416Z,78.31
2022-09-06T03:20:46.058Z,78.63
2022-09-06T03:23:13.537Z,78.75
2022-09-06T03:25:40.056Z,78.70
2022-09-06T03:28:06.523Z,78.13
2022-09-06T03:30:33.065Z,77.82
2022-09-06T03:33:02.584Z,78.47
2022-09-06T03:35:29.577Z,79.13
2022-09-06T03:37:56.049Z,79.09
2022-09-06T03:40:22.604Z,79.25
2022-09-06T03:42:49.033Z,79.32
2022-09-06T03:45:16.741Z,79.97
2022-09-06T03:47:43.151Z,80.32
2022-09-06T03:50:09.914Z,79.59
2022-09-06T03:52:36.406Z,79.75
2022-09-06T03:55:03.754Z,80.15
2022-09-06T03:57:30.177Z,79.87
2022-09-06T03:59:56.683Z,79.69
2022-09-06T04:02:23.241Z,79.22
2022-09-06T04:04:49.728Z,79.45
2022-09-06T04:07:16.129Z,78.77
2022-09-06T04:09:42.621Z,79.31
2022-09-06T04:12:09.167Z,79.98
2022-09-06T04:14:35.572Z,79.97
2022-09-06T04:17:02.042Z,79.15
2022-09-06T04:19:28.519Z,79.44
2022-09-06T04:21:55.246Z,79.43
2022-09-06T04:24:21.659Z,80.25
2022-09-06T04:26:48.174Z,80.68
2022-09-06T04:29:14.608Z,80.10
2022-09-06T04:31:41.123Z,80.08
2022-09-06T04:34:07.763Z,79.52
2022-09-06T04:36:34.393Z,79.81
2022-09-06T04:39:00.810Z,79.92
2022-09-06T04:41:27.264Z,79.73
2022-09-06T04:43:54.032Z,79.95
2022-09-06T04:46:25.167Z,79.49
2022-09-06T04:48:53.605Z,78.64
2022-09-06T04:51:21.449Z,79.30
2022-09-06T04:53:48.362Z,79.49
2022-09-06T04:56:18.082Z,79.33
2022-09-06T04:58:46.508Z,79.22
2022-09-06T05:01:13.498Z,79.36
2022-09-06T05:03:40.069Z,79.12
2022-09-06T05:06:09.294Z,79.61
2022-09-06T05:08:42.335Z,79.06
2022-09-06T05:11:11.041Z,79.27
2022-09-06T05:13:37.773Z,79.44
2022-09-06T05:16:06.880Z,79.49
2022-09-06T05:18:33.630Z,79.71
2022-09-06T05:21:00.722Z,80.49
2022-09-06T05:23:28.035Z,81.24
2022-09-06T05:25:54.500Z,81.66
2022-09-06T05:28:21.490Z,81.20
2022-09-06T05:30:47.954Z,81.23
2022-09-06T05:33:20.202Z,80.85
2022-09-06T05:35:46.674Z,79.95
2022-09-06T05:38:13.094Z,78.94
2022-09-06T05:40:39.562Z,78.56
2022-09-06T05:43:06.174Z,78.74
2022-09-06T05:45:32.680Z,78.61
2022-09-06T05:47:59.193Z,78.48
2022-09-06T05:50:25.696Z,79.00
2022-09-06T05:52:53.950Z,79.16
2022-09-06T05:55:20.405Z,79.21
2022-09-06T05:57:46.804Z,79.59
2022-09-06T06:00:13.701Z,78.24
2022-09-06T06:02:40.413Z,76.37
2022-09-06T06:05:07.914Z,74.08
2022-09-06T06:07:34.630Z,73.26
2022-09-06T06:10:01.102Z,72.96
2022-09-06T06:12:27.525Z,72.58
2022-09-06T06:14:54.502Z,72.68
2022-09-06T06:17:20.993Z,72.11
2022-09-06T06:19:47.511Z,71.38
2022-09-06T06:22:14.006Z,71.22
2022-09-06T06:24:40.472Z,70.18
2022-09-06T06:27:07.531Z,69.18
2022-09-06T06:29:33.992Z,68.16
2022-09-06T06:32:00.484Z,68.89
2022-09-06T06:34:27.024Z,69.08
2022-09-06T06:36:53.457Z,69.65
2022-09-06T06:39:20.016Z,70.22
2022-09-06T06:41:47.813Z,69.96
2022-09-06T06:44:40.309Z,70.81
2022-09-06T06:47:07.091Z,71.62
2022-09-06T06:49:33.654Z,72.02
2022-09-06T06:52:00.160Z,72.06
2022-09-06T06:54:26.685Z,72.23
2022-09-06T06:56:53.098Z,72.42
2022-09-06T06:59:20.502Z,72.56
2022-09-06T07:01:47.056Z,72.28
2022-09-06T07:04:14.186Z,72.34
2022-09-06T07:12:29.465Z,69.96
2022-09-06T07:14:55.892Z,68.85
2022-09-06T07:17:22.310Z,67.64
2022-09-06T07:22:37.034Z,66.88
2022-09-06T07:25:05.042Z,66.38
2022-09-06T07:27:47.745Z,65.31
2022-09-06T07:30:15.323Z,63.75
2022-09-06T07:32:41.841Z,63.41
2022-09-06T07:35:08.887Z,63.11
2022-09-06T07:37:35.405Z,62.87
2022-09-06T07:40:03.180Z,63.17
2022-09-06T07:42:36.485Z,64.32
2022-09-06T07:45:04.547Z,64.42
2022-09-06T07:55:32.994Z,59.21
2022-09-06T07:57:59.441Z,60.21
2022-09-06T08:00:26.298Z,62.32
2022-09-06T08:02:52.886Z,61.01
2022-09-06T08:10:52.329Z,61.04
2022-09-06T08:13:18.784Z,61.55
2022-09-06T08:15:45.290Z,60.25
2022-09-06T08:18:11.973Z,59.07
2022-09-06T08:20:38.456Z,58.00
2022-09-06T08:23:12.402Z,57.16
2022-09-06T08:25:38.819Z,56.61
2022-09-06T08:28:05.316Z,55.74
2022-09-06T08:30:32.984Z,55.67
2022-09-06T08:32:59.727Z,56.22
2022-09-06T08:35:26.185Z,55.05
2022-09-06T08:37:52.857Z,55.14
2022-09-06T08:40:22.379Z,54.16
2022-09-06T08:42:48.878Z,54.06
2022-09-06T08:45:19.315Z,52.75
2022-09-06T08:47:45.795Z,52.73
2022-09-06T08:50:12.359Z,52.33
2022-09-06T08:53:17.893Z,54.90
2022-09-06T08:55:54.199Z,54.83
2022-09-06T08:58:35.746Z,53.91
2022-09-06T09:01:11.346Z,54.49
2022-09-06T09:03:39.884Z,54.61
2022-09-06T09:06:09.232Z,54.60
2022-09-06T09:08:47.982Z,55.76
2022-09-06T09:11:17.910Z,56.34
2022-09-06T09:13:55.625Z,54.32
2022-09-06T09:16:22.867Z,54.18
2022-09-06T09:18:53.666Z,52.60
2022-09-06T09:21:28.065Z,50.06
2022-09-06T09:24:01.982Z,50.59
2022-09-06T09:26:35.107Z,52.15
2022-09-06T09:29:03.874Z,51.08
2022-09-06T09:31:36.083Z,51.94
2022-09-06T09:34:04.862Z,52.88
2022-09-06T09:36:32.865Z,52.06
2022-09-06T09:39:00.002Z,50.36
2022-09-06T09:41:32.861Z,49.27
2022-09-06T09:44:05.104Z,47.87
2022-09-06T09:46:36.826Z,48.10
2022-09-06T09:49:11.171Z,47.76
2022-09-06T09:51:43.341Z,47.09
2022-09-06T09:54:29.465Z,47.41
2022-09-06T09:56:56.871Z,46.83
2022-09-06T09:59:37.930Z,46.80
2022-09-06T10:02:41.265Z,47.04
2022-09-06T10:05:13.588Z,46.75
2022-09-06T10:07:51.945Z,45.83
2022-09-06T10:10:33.398Z,45.59
2022-09-06T10:13:07.644Z,42.61
2022-09-06T10:15:40.031Z,43.25
2022-09-06T10:18:06.692Z,41.67
2022-09-06T10:20:56.423Z,43.12
2022-09-06T10:26:53.742Z,41.93
2022-09-06T10:29:34.781Z,40.42
2022-09-06T10:32:32.610Z,41.77
2022-09-06T10:35:13.096Z,41.46
2022-09-06T10:37:47.273Z,41.97
2022-09-06T10:40:30.409Z,41.38
2022-09-06T10:42:59.387Z,39.88
2022-09-06T10:45:59.590Z,40.14
2022-09-06T10:48:44.636Z,40.75
2022-09-06T10:51:21.787Z,40.48
2022-09-06T10:54:07.864Z,39.20
2022-09-06T10:56:49.973Z,38.98
2022-09-06T10:59:41.966Z,39.54
2022-09-06T11:02:42.927Z,40.56
2022-09-06T11:05:38.301Z,40.96
2022-09-06T11:11:08.045Z,36.64
2022-09-06T11:13:34.679Z,36.49
2022-09-06T11:16:27.085Z,37.22
2022-09-06T11:19:02.656Z,37.99
2022-09-06T11:21:48.350Z,38.83
2022-09-06T11:24:22.263Z,37.69
2022-09-06T11:27:13.633Z,37.67
2022-09-06T11:29:45.106Z,38.45
2022-09-06T11:32:50.396Z,38.07
2022-09-06T11:35:28.436Z,37.81
2022-09-06T11:38:05.961Z,37.80
2022-09-06T11:40:47.722Z,38.28
2022-09-06T11:43:38.768Z,38.06
2022-09-06T11:46:05.269Z,39.38
2022-09-06T11:48:36.419Z,38.98
2022-09-06T11:51:11.088Z,38.92
2022-09-06T11:54:06.214Z,38.43
2022-09-06T11:56:59.935Z,38.46
2022-09-06T11:59:34.173Z,38.68
2022-09-06T12:02:03.998Z,36.94
2022-09-06T12:05:00.449Z,37.42
2022-09-06T12:07:31.786Z,37.60
2022-09-06T12:10:01.976Z,38.00
2022-09-06T12:12:50.754Z,37.86
2022-09-06T12:15:30.184Z,38.83
2022-09-06T12:17:59.000Z,38.92
2022-09-06T12:20:47.668Z,39.25
2022-09-06T12:23:35.712Z,39.26
2022-09-06T12:26:04.519Z,39.61
2022-09-06T12:28:49.816Z,39.49
2022-09-06T12:31:36.699Z,38.68
2022-09-06T12:34:14.441Z,38.43
2022-09-06T12:36:57.396Z,38.52
2022-09-06T12:39:24.345Z,38.65
2022-09-06T12:41:56.110Z,38.32
2022-09-06T12:44:36.214Z,37.92
2022-09-06T12:47:06.840Z,37.34
2022-09-06T12:49:33.566Z,37.75
2022-09-06T12:52:29.494Z,36.88
2022-09-06T12:54:55.932Z,37.47
2022-09-06T12:57:24.900Z,37.41
2022-09-06T12:59:56.615Z,37.39
2022-09-06T13:02:26.196Z,37.54
2022-09-06T13:05:02.790Z,37.85
2022-09-06T13:07:31.622Z,37.56
2022-09-06T13:09:58.405Z,37.29
2022-09-06T13:12:33.370Z,38.04
2022-09-06T13:15:19.536Z,37.63
2022-09-06T13:17:46.414Z,37.72
2022-09-06T13:20:22.701Z,37.09
2022-09-06T13:22:51.300Z,37.14
2022-09-06T13:25:21.055Z,37.07
2022-09-06T13:27:50.883Z,36.93
2022-09-06T13:30:34.096Z,36.31
2022-09-06T13:33:02.134Z,36.56
2022-09-06T13:35:31.624Z,36.86
2022-09-06T13:38:43.070Z,36.39
2022-09-06T13:41:24.615Z,35.74
2022-09-06T13:44:04.225Z,35.53
2022-09-06T13:46:32.462Z,35.97
2022-09-06T13:48:59.271Z,35.82
2022-09-06T13:51:28.396Z,35.55
2022-09-06T13:54:12.854Z,35.70
2022-09-06T13:56:40.949Z,35.76
2022-09-06T13:59:11.686Z,35.12
2022-09-06T14:01:40.208Z,34.84
2022-09-06T14:04:07.262Z,34.59
2022-09-06T14:06:36.928Z,34.27
2022-09-06T14:09:07.455Z,34.04
2022-09-06T14:11:34.870Z,34.17
2022-09-06T14:14:01.309Z,34.20
2022-09-06T14:16:27.734Z,33.65
2022-09-06T14:18:54.266Z,33.92
2022-09-06T14:21:20.690Z,33.12
2022-09-06T14:23:51.367Z,33.19
2022-09-06T14:26:19.036Z,33.15
2022-09-06T14:28:45.656Z,33.01
2022-09-06T14:31:15.209Z,33.23
2022-09-06T14:33:42.125Z,33.35
2022-09-06T14:36:10.579Z,32.96
2022-09-06T14:38:38.358Z,33.21
2022-09-06T14:41:05.548Z,32.57
2022-09-06T14:43:32.798Z,32.45
2022-09-06T14:46:14.199Z,32.31
2022-09-06T14:48:42.759Z,32.93
2022-09-06T14:51:14.221Z,33.56
2022-09-06T14:53:42.319Z,33.48
2022-09-06T14:56:10.173Z,33.89
2022-09-06T14:58:38.381Z,33.59
2022-09-06T15:01:13.100Z,33.24
2022-09-06T15:03:48.821Z,34.58
2022-09-06T15:06:16.353Z,35.87
2022-09-06T15:08:43.238Z,35.99
2022-09-06T15:11:10.041Z,37.34
2022-09-06T15:13:37.486Z,38.63
2022-09-06T15:16:05.815Z,40.05
2022-09-06T15:18:33.189Z,40.82
2022-09-06T15:21:09.698Z,41.96
2022-09-06T15:23:36.720Z,42.86
2022-09-06T15:26:03.428Z,43.07
2022-09-06T15:28:29.833Z,43.62
2022-09-06T15:30:56.300Z,44.03
2022-09-06T15:33:22.892Z,43.69
2022-09-06T15:35:57.206Z,43.28
2022-09-06T15:38:23.898Z,43.03
2022-09-06T15:40:50.816Z,42.51
2022-09-06T15:43:17.315Z,42.18
2022-09-06T15:45:49.247Z,41.72
2022-09-06T15:48:17.377Z,41.65
2022-09-06T15:50:51.393Z,42.47
2022-09-06T15:53:19.625Z,42.80
2022-09-06T15:56:12.380Z,42.80
2022-09-06T15:58:39.080Z,43.07
2022-09-06T16:01:09.272Z,43.08
2022-09-06T16:03:38.566Z,43.50
2022-09-06T16:08:55.169Z,43.46
2022-09-06T16:11:21.741Z,43.49
2022-09-06T16:13:48.877Z,43.07
2022-09-06T16:16:16.682Z,42.96
2022-09-06T16:18:46.388Z,42.65
2022-09-06T16:21:23.769Z,42.57
2022-09-06T16:23:53.495Z,42.75
2022-09-06T16:26:21.748Z,42.64
2022-09-06T16:28:50.231Z,43.36
2022-09-06T16:31:17.891Z,43.33
2022-09-06T16:33:45.698Z,43.41
2022-09-06T16:36:12.896Z,43.46
2022-09-06T16:38:40.050Z,43.35
2022-09-06T16:41:14.495Z,43.71
2022-09-06T16:43:41.301Z,43.33
2022-09-06T16:46:08.267Z,44.15
2022-09-06T16:48:34.944Z,44.00
2022-09-06T16:51:15.701Z,43.57
2022-09-06T16:53:44.300Z,43.54
2022-09-06T16:56:12.519Z,43.95
2022-09-06T16:58:41.991Z,44.10
2022-09-06T17:01:10.013Z,43.84
2022-09-06T17:03:37.436Z,44.48
2022-09-06T17:06:04.337Z,44.62
2022-09-06T17:08:36.351Z,44.06
2022-09-06T17:11:05.320Z,44.39
2022-09-06T17:13:32.098Z,44.48
2022-09-06T17:16:21.915Z,44.81
2022-09-06T17:18:49.420Z,44.87
2022-09-06T17:21:15.851Z,44.82
2022-09-06T17:23:42.381Z,44.92
2022-09-06T17:26:09.075Z,45.18
2022-09-06T17:28:37.181Z,45.32
2022-09-06T17:31:05.370Z,45.72
2022-09-06T17:33:33.014Z,46.11
2022-09-06T17:36:12.293Z,46.41
2022-09-06T17:38:40.027Z,46.49
2022-09-06T17:41:07.160Z,46.64
2022-09-06T17:43:36.263Z,46.39
2022-09-06T17:46:03.827Z,46.69
2022-09-06T17:48:30.415Z,46.63
2022-09-06T17:51:05.021Z,48.14
2022-09-06T17:53:31.835Z,50.67
2022-09-06T17:55:58.462Z,53.11
2022-09-06T17:58:24.970Z,54.95
2022-09-06T18:00:51.567Z,55.01
2022-09-06T18:03:18.038Z,55.92
2022-09-06T18:05:45.183Z,56.25
2022-09-06T18:08:11.753Z,56.51
2022-09-06T18:10:38.647Z,56.76
2022-09-06T18:13:06.121Z,56.85
2022-09-06T18:15:37.974Z,57.15
2022-09-06T18:18:04.662Z,57.66
2022-09-06T18:20:31.478Z,58.23
2022-09-06T18:22:58.311Z,59.22
2022-09-06T18:25:24.885Z,59.03
2022-09-06T18:27:51.368Z,58.61
2022-09-06T18:30:17.925Z,59.11
2022-09-06T18:32:44.762Z,58.94
2022-09-06T18:35:11.471Z,58.20
2022-09-06T18:37:38.546Z,58.06
2022-09-06T18:40:06.071Z,57.60
2022-09-06T18:42:33.340Z,57.14
2022-09-06T18:44:59.816Z,56.61
2022-09-06T18:47:26.278Z,56.77
2022-09-06T18:49:52.713Z,56.59
2022-09-06T18:52:20.775Z,56.54
2022-09-06T18:54:48.913Z,57.54
2022-09-06T18:57:16.405Z,57.60
2022-09-06T18:59:43.093Z,58.12
2022-09-06T19:02:09.687Z,57.62
2022-09-06T19:04:36.334Z,57.42
2022-09-06T19:07:03.781Z,57.58
2022-09-06T19:09:30.299Z,57.80
2022-09-06T19:11:56.765Z,58.06
2022-09-06T19:14:23.339Z,58.88
2022-09-06T19:16:51.539Z,59.72
2022-09-06T19:19:18.178Z,60.29
2022-09-06T19:21:44.643Z,60.63
2022-09-06T19:24:12.406Z,61.03
2022-09-06T19:26:42.039Z,61.47
2022-09-06T19:29:13.101Z,62.28
2022-09-06T19:31:39.564Z,63.81
2022-09-06T19:34:06.552Z,64.26
2022-09-06T19:36:33.752Z,64.51
2022-09-06T19:39:06.270Z,64.42
2022-09-06T19:41:36.344Z,62.94
2022-09-06T19:44:05.614Z,62.29
2022-09-06T19:46:32.215Z,61.85
2022-09-06T19:48:58.769Z,62.03
2022-09-06T19:51:25.667Z,62.58
2022-09-06T19:53:54.360Z,62.67
2022-09-06T19:56:24.459Z,62.63
2022-09-06T19:58:58.567Z,61.86
2022-09-06T20:01:29.168Z,61.48
2022-09-06T20:03:55.927Z,61.23
2022-09-06T20:06:22.907Z,60.85
2022-09-06T20:08:54.218Z,60.72
2022-09-06T20:11:22.861Z,60.91
2022-09-06T20:13:49.404Z,62.10
2022-09-06T20:16:18.545Z,62.22
2022-09-06T20:18:46.872Z,62.27
2022-09-06T20:21:13.892Z,62.83
2022-09-06T20:23:40.862Z,63.88
2022-09-06T20:26:09.643Z,63.29
2022-09-06T20:28:37.050Z,63.74
2022-09-06T20:31:09.110Z,63.10
2022-09-06T20:33:36.365Z,63.09
2022-09-06T20:36:05.807Z,62.95
2022-09-06T20:38:35.214Z,63.34
2022-09-06T20:41:05.025Z,62.80
2022-09-06T20:43:34.377Z,62.63
2022-09-06T20:46:04.152Z,62.55
2022-09-06T20:48:32.732Z,62.65
2022-09-06T20:51:02.542Z,62.43
2022-09-06T20:53:33.573Z,61.78
2022-09-06T20:56:06.230Z,62.13
2022-09-06T20:58:33.494Z,61.87
2022-09-06T21:01:05.299Z,62.85
2022-09-06T21:03:31.842Z,63.30
2022-09-06T21:05:58.307Z,63.12
2022-09-06T21:08:26.050Z,63.37
2022-09-06T21:10:59.437Z,63.64
2022-09-06T21:13:28.230Z,63.36
2022-09-06T21:15:55.777Z,64.07
2022-09-06T21:18:23.365Z,64.56
2022-09-06T21:20:57.921Z,64.18
2022-09-06T21:23:25.038Z,64.68
2022-09-06T21:25:55.558Z,65.42
2022-09-06T21:28:22.530Z,65.02
2022-09-06T21:31:00.398Z,65.13
2022-09-06T21:33:28.871Z,64.33
2022-09-06T21:36:01.153Z,63.98
2022-09-06T21:38:27.660Z,64.41
2022-09-06T21:40:54.112Z,64.33
2022-09-06T21:43:20.515Z,65.04
2022-09-06T21:45:47.075Z,64.55
2022-09-06T21:48:18.108Z,64.44
2022-09-06T21:50:46.817Z,64.28
2022-09-06T21:53:13.915Z,65.17
2022-09-06T21:55:40.910Z,64.68
2022-09-06T21:58:07.826Z,65.23
2022-09-06T22:00:34.935Z,66.35
2022-09-06T22:03:01.848Z,67.27
2022-09-06T22:05:28.668Z,66.52
2022-09-06T22:07:55.170Z,65.69
2022-09-06T22:10:23.641Z,65.11
2022-09-06T22:12:50.612Z,64.80
2022-09-06T22:15:18.899Z,65.10
2022-09-06T22:17:45.391Z,65.34
2022-09-06T22:20:12.181Z,65.20
2022-09-06T22:22:38.813Z,65.86
2022-09-06T22:25:05.895Z,65.96
2022-09-06T22:27:32.338Z,66.49
2022-09-06T22:29:58.777Z,66.39
2022-09-06T22:32:25.335Z,67.54
2022-09-06T22:34:51.874Z,67.95
2022-09-06T22:37:18.290Z,67.76
2022-09-06T22:39:44.864Z,67.55
2022-09-06T22:42:11.396Z,67.69
2022-09-06T22:44:37.918Z,67.81
2022-09-06T22:47:05.163Z,67.84
2022-09-06T22:49:31.587Z,67.33
2022-09-06T22:51:58.248Z,66.48
2022-09-06T22:54:24.711Z,66.31
2022-09-06T22:56:51.209Z,67.68
2022-09-06T22:59:17.791Z,67.28
2022-09-06T23:01:44.371Z,66.53
2022-09-06T23:04:11.120Z,65.75
2022-09-06T23:06:37.694Z,65.72
2022-09-06T23:09:04.589Z,66.15
2022-09-06T23:11:32.554Z,66.22
2022-09-06T23:14:00.618Z,67.05
2022-09-06T23:16:28.195Z,67.09
2022-09-06T23:18:55.318Z,67.26
2022-09-06T23:21:24.433Z,67.68
2022-09-06T23:23:52.767Z,67.83
2022-09-06T23:26:22.206Z,67.45
2022-09-06T23:28:56.425Z,67.55
2022-09-06T23:31:25.496Z,68.03
2022-09-06T23:33:59.759Z,68.22
2022-09-06T23:36:26.969Z,68.58
2022-09-06T23:38:53.545Z,68.11
2022-09-06T23:41:20.266Z,68.27
2022-09-06T23:43:46.709Z,68.14
2022-09-06T23:46:14.856Z,69.22
2022-09-06T23:48:42.898Z,69.77
2022-09-06T23:51:09.600Z,70.13
2022-09-06T23:53:36.529Z,69.90
2022-09-06T23:56:04.066Z,69.34
2022-09-06T23:58:31.190Z,69.09
